createdAt,value
2019-02-25T06:53:34.025Z,11.47
2019-02-25T06:56:04.631Z,12.00
2019-02-25T06:58:37.973Z,12.80
2019-02-25T07:01:08.442Z,12.43
2019-02-25T07:03:38.855Z,13.60
2019-02-25T07:06:28.202Z,14.10
2019-02-25T07:09:06.390Z,13.73
2019-02-25T07:11:48.888Z,13.30
2019-02-25T07:14:47.289Z,13.17
2019-02-25T07:17:48.463Z,13.33
2019-02-25T07:20:39.692Z,12.90
2019-02-25T07:23:27.957Z,13.40
2019-02-25T07:26:22.015Z,12.60
2019-02-25T07:29:10.317Z,12.93
2019-02-25T07:31:47.880Z,13.77
2019-02-25T07:34:27.026Z,13.03
2019-02-25T07:37:17.998Z,13.87
2019-02-25T07:40:09.032Z,13.57
2019-02-25T07:42:51.199Z,14.33
2019-02-25T07:45:41.774Z,14.07
2019-02-25T07:48:28.568Z,15.07
2019-02-25T07:51:13.390Z,14.67
2019-02-25T07:53:55.846Z,14.40
2019-02-25T07:56:50.007Z,15.13
2019-02-25T07:59:24.791Z,14.77
2019-02-25T08:02:02.757Z,14.70
2019-02-25T08:04:45.797Z,15.10
2019-02-25T08:07:46.883Z,14.40
2019-02-25T08:10:23.379Z,14.30
2019-02-25T08:13:17.442Z,14.97
2019-02-25T08:16:24.182Z,14.53
2019-02-25T08:19:11.964Z,14.27
2019-02-25T08:22:00.192Z,15.10
2019-02-25T08:24:35.637Z,14.43
2019-02-25T08:27:13.813Z,15.10
2019-02-25T10:52:30.959Z,10.57
2019-02-25T10:55:00.284Z,12.10
2019-02-25T10:57:31.352Z,10.90
2019-02-25T11:00:02.725Z,10.60
2019-02-25T11:02:32.028Z,12.10
2019-02-25T11:05:01.357Z,10.43
2019-02-25T11:07:31.156Z,10.50
2019-02-25T11:10:22.277Z,9.77
2019-02-25T11:12:53.352Z,9.57
2019-02-25T11:15:22.723Z,10.03
2019-02-25T11:17:53.807Z,10.10
2019-02-25T11:20:23.139Z,9.97
2019-02-25T11:22:52.859Z,10.20
2019-02-25T11:25:24.080Z,9.70
2019-02-25T11:27:53.266Z,9.73
2019-02-25T11:30:23.886Z,9.70
2019-02-25T11:32:55.584Z,9.97
2019-02-25T11:35:24.361Z,9.80
2019-02-25T11:37:54.745Z,7.97
2019-02-25T11:40:26.015Z,8.97
2019-02-25T11:42:55.749Z,8.53
2019-02-25T11:45:25.198Z,8.70
2019-02-25T11:47:54.492Z,9.17
2019-02-25T11:50:23.812Z,8.40
